createdAt,value
2018-04-30T05:13:47.222Z,54.3
2018-04-30T05:14:36.787Z,54.3
2018-04-30T05:15:27.631Z,54.2
2018-04-30T05:16:17.138Z,54.2
2018-04-30T05:17:07.817Z,54.2
2018-04-30T05:17:57.832Z,54.2
2018-04-30T05:18:47.613Z,54.2
2018-04-30T05:19:37.941Z,54.1
2018-04-30T05:20:27.731Z,54.2
2018-04-30T05:21:17.811Z,54.1
2018-04-30T05:22:07.581Z,54.1
2018-04-30T05:22:58.201Z,54.1
2018-04-30T05:23:48.255Z,54.1
2018-04-30T05:24:38.056Z,54.1
2018-04-30T05:25:28.431Z,54.1
2018-04-30T05:26:18.196Z,54.1
2018-04-30T05:27:08.537Z,54.1
2018-04-30T05:27:58.322Z,54.1
2018-04-30T05:28:48.749Z,54.1
2018-04-30T05:29:38.261Z,54.1
2018-04-30T05:30:28.779Z,54.1
2018-04-30T05:31:18.372Z,54.1
2018-04-30T05:32:08.751Z,54.1
2018-04-30T05:32:58.721Z,54.1
2018-04-30T05:33:49.360Z,54.1
2018-04-30T05:34:38.555Z,54.1
2018-04-30T05:35:28.714Z,54.1
2018-04-30T05:36:19.259Z,54.1
2018-04-30T05:37:09.019Z,54
2018-04-30T05:37:58.508Z,54
2018-04-30T05:38:48.594Z,54
2018-04-30T05:39:39.493Z,54
2018-04-30T05:40:28.969Z,54
2018-04-30T05:41:18.883Z,54
2018-04-30T05:42:09.395Z,54
2018-04-30T05:42:59.207Z,53.9
2018-04-30T05:43:49.848Z,53.9
2018-04-30T05:44:39.327Z,53.9
2018-04-30T05:45:29.958Z,53.9
2018-04-30T05:46:18.878Z,53.9
2018-04-30T05:47:09.212Z,53.9
2018-04-30T05:48:00.138Z,53.9
2018-04-30T05:48:49.636Z,53.9
2018-04-30T05:49:39.987Z,53.9
2018-04-30T05:50:30.426Z,53.9
2018-04-30T05:51:19.558Z,53.9
2018-04-30T05:52:10.189Z,53.9
2018-04-30T05:53:00.211Z,53.9
2018-04-30T05:53:50.293Z,53.9
2018-04-30T05:54:40.375Z,53.8
2018-04-30T05:55:30.445Z,53.9
2018-04-30T05:56:20.495Z,53.8
2018-04-30T05:57:10.850Z,53.8
2018-04-30T05:58:00.899Z,53.8
2018-04-30T05:58:50.948Z,53.8
2018-04-30T05:59:41.021Z,53.8
2018-04-30T06:00:31.260Z,53.8
2018-04-30T06:01:20.690Z,53.8
2018-04-30T06:02:10.663Z,53.8
2018-04-30T06:03:01.022Z,53.8
2018-04-30T06:03:51.358Z,53.8
2018-04-30T06:04:41.130Z,53.8
2018-04-30T06:05:31.474Z,53.8
2018-04-30T06:06:21.269Z,53.8
2018-04-30T06:07:11.091Z,53.8
2018-04-30T06:08:01.679Z,53.8
2018-04-30T06:08:51.492Z,53.7
2018-04-30T06:09:41.814Z,53.7
2018-04-30T06:10:31.857Z,53.7
2018-04-30T06:11:21.717Z,53.7
2018-04-30T06:12:11.739Z,53.7
2018-04-30T06:13:01.792Z,53.7
2018-04-30T06:13:52.141Z,53.7
2018-04-30T06:14:42.182Z,53.6
2018-04-30T06:15:32.246Z,53.7
2018-04-30T06:16:22.043Z,53.6
2018-04-30T06:17:12.383Z,53.6
2018-04-30T06:18:01.904Z,53.6
2018-04-30T06:18:52.215Z,53.6
2018-04-30T06:19:42.648Z,53.6
2018-04-30T06:20:32.623Z,53.6
2018-04-30T06:21:22.119Z,53.6
2018-04-30T06:22:12.761Z,53.6
2018-04-30T06:23:02.265Z,53.6
2018-04-30T06:23:52.682Z,53.6
2018-04-30T06:24:42.983Z,53.6
2018-04-30T06:25:33.000Z,53.6
2018-04-30T06:26:23.102Z,53.6
2018-04-30T06:27:12.322Z,53.6
2018-04-30T06:28:03.210Z,53.6
2018-04-30T06:28:53.304Z,53.5
2018-04-30T06:29:43.063Z,53.5
2018-04-30T06:30:33.404Z,53.5
2018-04-30T06:31:22.908Z,53.5
2018-04-30T06:32:13.265Z,53.5
2018-04-30T06:33:03.599Z,53.5
2018-04-30T06:33:53.670Z,53.5
2018-04-30T06:34:43.466Z,53.5
2018-04-30T06:35:33.778Z,53.4
2018-04-30T06:36:23.326Z,53.4
2018-04-30T06:37:13.613Z,53.4
2018-04-30T06:38:03.978Z,53.4
2018-04-30T06:38:53.781Z,53.4
2018-04-30T06:39:43.801Z,53.4
2018-04-30T06:40:33.622Z,53.4
2018-04-30T06:41:24.219Z,53.4
2018-04-30T06:42:13.999Z,53.4
2018-04-30T06:43:04.069Z,53.5
2018-04-30T06:43:53.590Z,53.4
2018-04-30T06:44:44.490Z,53.3
2018-04-30T06:45:33.687Z,53.1
2018-04-30T06:46:24.356Z,52.9
2018-04-30T06:47:14.418Z,52.8
2018-04-30T06:48:04.746Z,52.6
2018-04-30T06:48:54.329Z,52.6
2018-04-30T06:49:44.913Z,52.6
2018-04-30T06:50:34.479Z,52.5
2018-04-30T06:51:24.470Z,52.5
2018-04-30T06:52:15.090Z,52.5
2018-04-30T06:53:04.848Z,52.5
2018-04-30T06:53:54.924Z,52.4
2018-04-30T06:54:45.260Z,52.4
2018-04-30T06:55:34.854Z,52.4
2018-04-30T06:56:25.432Z,52.4
2018-04-30T06:57:14.956Z,52.4
2018-04-30T07:01:25.480Z,52.3
2018-04-30T07:02:15.571Z,52.3
2018-04-30T07:03:05.929Z,52.3
2018-04-30T07:03:55.738Z,52.3
2018-04-30T07:04:45.497Z,52.3
2018-04-30T07:05:36.109Z,52.3
2018-04-30T07:06:26.233Z,52.3
2018-04-30T07:07:15.999Z,52.2
2018-04-30T07:08:05.778Z,52.3
2018-04-30T07:08:56.365Z,52.2
2018-04-30T07:09:46.840Z,52.2
2018-04-30T07:10:36.507Z,52.2
2018-04-30T07:11:26.583Z,52.2
2018-04-30T07:12:16.637Z,52.2
2018-04-30T07:13:06.438Z,52.1
2018-04-30T07:13:56.800Z,52.1
2018-04-30T07:14:46.009Z,52.2
2018-04-30T07:15:36.915Z,52.1
2018-04-30T07:16:27.021Z,52.1
2018-04-30T07:17:16.758Z,52
2018-04-30T07:18:06.390Z,52
2018-04-30T07:18:56.888Z,52
2018-04-30T07:20:37.280Z,52.1
2018-04-30T07:21:27.059Z,52
2018-04-30T07:22:17.136Z,52
2018-04-30T07:23:07.226Z,52
2018-04-30T07:23:57.267Z,52
2018-04-30T07:24:47.083Z,52
2018-04-30T07:25:37.386Z,52
2018-04-30T07:26:26.891Z,52
2018-04-30T07:27:17.804Z,52.1
2018-04-30T07:28:07.606Z,52
2018-04-30T07:28:57.383Z,52
2018-04-30T07:29:48.028Z,52
2018-04-30T07:30:37.806Z,52
2018-04-30T07:31:28.166Z,52
2018-04-30T07:32:18.233Z,52
2018-04-30T07:33:08.636Z,52
2018-04-30T07:33:58.158Z,52
2018-04-30T07:34:48.420Z,52
2018-04-30T07:35:38.564Z,52
2018-04-30T07:37:18.594Z,52
2018-04-30T07:38:08.373Z,51.9
2018-04-30T07:38:58.480Z,51.9
2018-04-30T07:39:48.835Z,51.9
2018-04-30T07:40:37.751Z,51.8
2018-04-30T07:41:28.951Z,51.8
2018-04-30T07:42:18.741Z,51.8
2018-04-30T07:43:08.227Z,51.8
2018-04-30T07:43:59.142Z,51.7
2018-04-30T07:44:48.924Z,51.7
2018-04-30T07:45:38.972Z,51.6
2018-04-30T07:46:29.335Z,51.6
2018-04-30T07:47:18.831Z,51.6
2018-04-30T07:48:09.447Z,51.7
2018-04-30T07:48:59.247Z,51.7
2018-04-30T07:49:49.027Z,51.6
2018-04-30T07:50:39.714Z,51.6
2018-04-30T07:51:29.702Z,51.6
2018-04-30T07:52:19.515Z,51.6
2018-04-30T07:53:09.608Z,51.6
2018-04-30T07:53:59.889Z,51.6
2018-04-30T07:54:48.930Z,51.5
2018-04-30T07:55:40.034Z,51.5
2018-04-30T07:56:30.094Z,51.4
2018-04-30T07:57:20.884Z,51.4
2018-04-30T07:58:10.221Z,51.4
2018-04-30T07:59:00.040Z,51.4
2018-04-30T07:59:50.165Z,51.4
2018-04-30T08:00:40.443Z,51.4
2018-04-30T08:01:30.532Z,51.4
2018-04-30T08:02:20.024Z,51.5
2018-04-30T08:03:11.322Z,51.5
2018-04-30T08:04:00.707Z,51.5
2018-04-30T08:04:50.483Z,51.5
2018-04-30T08:05:40.526Z,51.6
2018-04-30T08:06:30.875Z,51.6
2018-04-30T08:07:20.694Z,51.6
2018-04-30T08:08:11.008Z,51.6
2018-04-30T08:09:00.859Z,51.6
2018-04-30T08:09:50.894Z,51.7
2018-04-30T08:10:40.927Z,51.8
2018-04-30T08:11:31.284Z,51.8
2018-04-30T08:12:21.086Z,51.8
2018-04-30T08:13:11.216Z,51.9
2018-04-30T08:14:01.493Z,51.9
2018-04-30T08:15:41.428Z,52
2018-04-30T08:16:31.392Z,52.1
2018-04-30T08:17:21.210Z,52.1
2018-04-30T08:18:11.263Z,52.1
2018-04-30T08:19:01.307Z,52.2
2018-04-30T08:19:51.956Z,52.3
2018-04-30T08:20:41.458Z,52.3
2018-04-30T08:23:11.957Z,52.4
2018-04-30T08:24:01.997Z,52.5
2018-04-30T08:24:52.079Z,52.6
2018-04-30T08:25:42.141Z,52.6
2018-04-30T08:26:31.650Z,52.6
2018-04-30T08:27:22.541Z,52.7
2018-04-30T08:28:12.595Z,52.8
2018-04-30T08:29:02.385Z,52.8
2018-04-30T08:29:52.495Z,52.8
2018-04-30T08:30:42.235Z,52.9
2018-04-30T08:31:32.874Z,52.9
2018-04-30T08:32:22.472Z,52.9
2018-04-30T08:33:12.431Z,52.9
2018-04-30T08:34:02.794Z,53
2018-04-30T08:34:52.647Z,53
2018-04-30T08:35:42.746Z,53.1
2018-04-30T08:36:33.477Z,53.1
2018-04-30T08:37:23.327Z,53.1
2018-04-30T08:38:12.662Z,53.1
2018-04-30T08:39:03.525Z,53.1
2018-04-30T08:39:52.999Z,53.1
2018-04-30T08:40:43.299Z,53.2
2018-04-30T08:41:33.707Z,53.2
2018-04-30T08:42:23.449Z,53.2
2018-04-30T08:43:13.545Z,53.3
2018-04-30T08:44:03.585Z,53.3
2018-04-30T08:44:53.645Z,53.3
2018-04-30T08:45:43.688Z,53.4
2018-04-30T08:46:33.483Z,53.4
2018-04-30T08:47:24.127Z,53.4
2018-04-30T08:48:13.635Z,53.5
2018-04-30T08:49:04.262Z,53.6
2018-04-30T08:49:54.311Z,53.6
2018-04-30T08:50:44.104Z,53.6
2018-04-30T08:51:33.598Z,53.7
2018-04-30T08:52:24.510Z,53.8
2018-04-30T08:53:13.542Z,53.8
2018-04-30T08:54:04.130Z,53.9
2018-04-30T08:54:53.889Z,53.9
2018-04-30T08:55:44.034Z,54
2018-04-30T08:56:34.872Z,54
2018-04-30T08:57:24.075Z,54.1
2018-04-30T08:58:14.719Z,54.1
2018-04-30T08:59:05.157Z,54.2
2018-04-30T08:59:55.105Z,54.3
2018-04-30T09:00:44.947Z,54.3
2018-04-30T09:01:34.970Z,54.4
2018-04-30T09:02:24.743Z,54.4
2018-04-30T09:03:15.374Z,54.5
2018-04-30T09:04:05.153Z,54.6
2018-04-30T09:04:55.477Z,54.6
2018-04-30T09:05:45.567Z,54.7
2018-04-30T09:06:35.632Z,54.8
2018-04-30T09:07:25.167Z,54.8
2018-04-30T09:08:15.792Z,54.9
2018-04-30T09:09:05.296Z,54.9
2018-04-30T09:09:55.901Z,55
2018-04-30T09:10:46.006Z,55.1
2018-04-30T09:11:35.458Z,55.1
2018-04-30T09:12:25.827Z,55.2
2018-04-30T09:13:15.919Z,55.3
2018-04-30T09:14:05.657Z,55.3
2018-04-30T09:14:56.422Z,55.4
2018-04-30T09:15:46.375Z,55.4
2018-04-30T09:16:36.435Z,55.6
2018-04-30T09:17:26.213Z,55.6
2018-04-30T09:18:16.287Z,55.7
2018-04-30T09:19:06.057Z,55.7
2018-04-30T09:19:56.111Z,55.8
2018-04-30T09:20:46.743Z,55.9
2018-04-30T09:21:36.811Z,55.9
2018-04-30T09:22:26.883Z,55.9
2018-04-30T09:23:16.362Z,56
2018-04-30T09:24:07.021Z,56.1
2018-04-30T09:24:57.086Z,56.1
2018-04-30T09:25:46.873Z,56.2
2018-04-30T09:26:36.923Z,56.3
2018-04-30T09:27:27.346Z,56.3
2018-04-30T09:28:18.171Z,56.4
2018-04-30T09:29:08.026Z,56.4
2018-04-30T09:29:57.467Z,56.5
2018-04-30T09:30:47.289Z,56.5
2018-04-30T09:31:37.632Z,56.6
2018-04-30T09:32:27.669Z,56.6
2018-04-30T09:33:17.480Z,56.7
2018-04-30T09:34:07.528Z,56.8
2018-04-30T09:34:57.738Z,56.8
2018-04-30T09:35:47.386Z,56.9
2018-04-30T09:36:38.040Z,56.9
2018-04-30T09:37:27.890Z,57
2018-04-30T09:38:17.660Z,57.1
2018-04-30T09:39:07.922Z,57.1
2018-04-30T09:39:58.272Z,57.1
2018-04-30T09:40:48.357Z,57.2
2018-04-30T09:41:37.862Z,57.3
2018-04-30T09:42:28.453Z,57.3
2018-04-30T09:43:18.279Z,57.3
2018-04-30T09:44:08.054Z,57.4
2018-04-30T09:44:58.391Z,57.5
2018-04-30T09:45:48.464Z,57.5
2018-04-30T09:46:38.519Z,57.6
2018-04-30T09:47:28.623Z,57.6
2018-04-30T09:48:18.652Z,57.7
2018-04-30T09:49:58.793Z,57.8
2018-04-30T09:50:48.841Z,57.9
2018-04-30T09:51:38.919Z,57.9
2018-04-30T09:52:27.591Z,57.9
2018-04-30T09:53:19.337Z,58
2018-04-30T09:54:09.379Z,58
2018-04-30T09:54:59.184Z,58.1
2018-04-30T09:55:49.521Z,58.1
2018-04-30T09:56:39.337Z,58.2
2018-04-30T09:57:29.676Z,58.3
2018-04-30T09:58:19.728Z,58.3
2018-04-30T09:59:09.244Z,58.3
2018-04-30T09:59:59.899Z,58.4
2018-04-30T10:00:49.924Z,58.4
2018-04-30T10:01:39.999Z,58.4
2018-04-30T10:02:30.136Z,58.5
2018-04-30T10:03:20.177Z,58.5
2018-04-30T10:05:00.268Z,58.6
2018-04-30T10:05:50.068Z,58.6
2018-04-30T10:06:40.122Z,58.7
2018-04-30T10:07:30.231Z,58.7
2018-04-30T10:08:20.277Z,58.8
2018-04-30T10:09:10.325Z,58.8
2018-04-30T10:10:00.649Z,58.8
2018-04-30T10:10:50.724Z,58.8
2018-04-30T10:11:40.524Z,58.9
2018-04-30T10:12:30.017Z,58.9
2018-04-30T10:13:20.638Z,58.9
2018-04-30T10:14:10.725Z,58.9
2018-04-30T10:15:00.579Z,58.9
2018-04-30T10:15:50.601Z,59
2018-04-30T10:16:40.664Z,59
2018-04-30T10:17:31.017Z,59
2018-04-30T10:18:21.441Z,59
2018-04-30T10:19:11.129Z,59
2018-04-30T10:20:00.426Z,59
2018-04-30T10:20:51.231Z,59.1
2018-04-30T10:21:41.610Z,59.1
2018-04-30T10:22:30.833Z,59.1
2018-04-30T10:23:21.954Z,59.1
2018-04-30T10:24:11.224Z,59.1
2018-04-30T10:25:00.746Z,59.1
2018-04-30T10:25:51.906Z,59.1
2018-04-30T10:26:41.723Z,59.1
2018-04-30T10:27:31.670Z,59.1
2018-04-30T10:28:21.544Z,59.1
2018-04-30T10:29:12.392Z,59.1
2018-04-30T10:30:01.792Z,59.2
2018-04-30T10:30:52.319Z,59.2
2018-04-30T10:31:42.979Z,59.2
2018-04-30T10:32:32.187Z,59.2
2018-04-30T10:33:22.253Z,59.2
2018-04-30T10:34:12.319Z,59.3
2018-04-30T10:35:02.379Z,59.3
2018-04-30T10:35:52.216Z,59.3
2018-04-30T10:36:42.542Z,59.3
2018-04-30T10:37:32.842Z,59.3
2018-04-30T10:38:22.667Z,59.3
2018-04-30T10:39:12.461Z,59.3
2018-04-30T10:40:02.789Z,59.4
2018-04-30T10:40:53.101Z,59.4
2018-04-30T10:41:43.187Z,59.4
2018-04-30T10:42:32.999Z,59.4
2018-04-30T10:43:22.499Z,59.4
2018-04-30T10:44:13.386Z,59.4
2018-04-30T10:45:03.472Z,59.5
2018-04-30T10:45:54.489Z,59.5
2018-04-30T10:46:43.310Z,59.6
2018-04-30T10:47:33.110Z,59.6
2018-04-30T10:48:23.719Z,59.6
2018-04-30T10:49:13.313Z,59.6
2018-04-30T10:50:03.320Z,59.6
2018-04-30T10:50:53.064Z,59.6
2018-04-30T10:51:44.065Z,59.7
2018-04-30T10:52:33.177Z,59.7
2018-04-30T10:53:24.107Z,59.7
2018-04-30T10:54:14.174Z,59.8
2018-04-30T10:55:03.986Z,59.8
2018-04-30T10:55:53.768Z,59.8
2018-04-30T10:56:44.370Z,59.8
2018-04-30T10:57:33.900Z,59.8
2018-04-30T10:58:24.045Z,59.8
2018-04-30T10:59:13.829Z,59.8
2018-04-30T11:00:04.094Z,59.9
2018-04-30T11:00:54.132Z,59.8
2018-04-30T11:01:43.969Z,59.9
2018-04-30T11:02:34.928Z,59.9
2018-04-30T11:03:24.626Z,59.9
2018-04-30T11:04:14.744Z,59.9
2018-04-30T11:05:04.217Z,59.9
2018-04-30T11:05:54.357Z,59.9
2018-04-30T11:06:44.697Z,59.9
2018-04-30T11:07:34.674Z,59.9
2018-04-30T11:08:25.338Z,59.9
2018-04-30T11:09:15.103Z,59.9
2018-04-30T11:10:04.914Z,59.9
2018-04-30T11:10:54.737Z,59.9
2018-04-30T11:11:45.289Z,59.9
2018-04-30T11:12:35.477Z,59.8
2018-04-30T11:13:24.853Z,59.8
2018-04-30T11:14:15.774Z,59.8
2018-04-30T11:15:05.847Z,59.9
2018-04-30T11:15:55.888Z,59.9
2018-04-30T11:16:45.958Z,59.8
2018-04-30T11:17:36.032Z,59.9
2018-04-30T11:18:25.818Z,59.8
2018-04-30T11:19:15.632Z,59.9
2018-04-30T11:20:05.983Z,59.8
2018-04-30T11:20:56.000Z,59.9
2018-04-30T11:21:46.086Z,59.8
2018-04-30T11:22:36.433Z,59.8
2018-04-30T11:23:25.961Z,59.8
2018-04-30T11:24:16.295Z,59.8
2018-04-30T11:25:06.626Z,59.8
2018-04-30T11:25:56.416Z,59.8
2018-04-30T11:26:46.202Z,59.8
2018-04-30T11:27:37.290Z,59.8
2018-04-30T11:28:26.912Z,59.8
2018-04-30T11:29:16.981Z,59.8
2018-04-30T11:30:06.756Z,59.8
2018-04-30T11:30:57.099Z,59.8
2018-04-30T11:31:46.313Z,59.7
2018-04-30T11:32:36.708Z,59.7
2018-04-30T11:33:27.349Z,59.6
2018-04-30T11:34:16.742Z,59.7
2018-04-30T11:35:07.513Z,59.6
2018-04-30T11:35:57.584Z,59.6
2018-04-30T11:36:47.619Z,59.6
2018-04-30T11:37:37.694Z,59.6
2018-04-30T11:38:27.451Z,59.6
2018-04-30T11:39:17.528Z,59.6
2018-04-30T11:40:08.105Z,59.6
2018-04-30T11:40:57.704Z,59.6
2018-04-30T11:41:47.729Z,59.6
2018-04-30T11:42:37.784Z,59.6
2018-04-30T11:43:27.861Z,59.5
2018-04-30T11:44:19.081Z,59.5
2018-04-30T11:45:08.025Z,59.6
2018-04-30T11:45:58.353Z,59.6
2018-04-30T11:46:48.176Z,59.6
2018-04-30T11:47:39.539Z,59.5
2018-04-30T11:48:27.690Z,59.6
2018-04-30T11:49:18.076Z,59.6
2018-04-30T11:50:08.408Z,59.6
2018-04-30T11:51:00.940Z,59.6
2018-04-30T11:51:47.736Z,59.6
2018-04-30T11:52:38.864Z,59.6
2018-04-30T11:53:28.090Z,59.6
2018-04-30T11:54:18.480Z,59.6
2018-04-30T11:55:09.072Z,59.6
2018-04-30T11:55:59.197Z,59.6
2018-04-30T11:56:48.645Z,59.6
2018-04-30T11:57:39.029Z,59.6
2018-04-30T11:58:29.350Z,59.6
2018-04-30T11:59:19.125Z,59.6
2018-04-30T12:00:08.614Z,59.6
2018-04-30T12:00:59.575Z,59.6
2018-04-30T12:01:49.336Z,59.7
2018-04-30T12:02:39.098Z,59.6
2018-04-30T12:03:29.503Z,59.6
2018-04-30T12:04:19.496Z,59.6
2018-04-30T12:05:09.305Z,59.5
2018-04-30T12:05:59.361Z,59.6
2018-04-30T12:06:49.780Z,59.5
2018-04-30T12:07:40.106Z,59.6
2018-04-30T12:08:29.852Z,59.6
2018-04-30T12:09:19.623Z,59.6
2018-04-30T12:10:10.487Z,59.6
2018-04-30T12:11:01.160Z,59.6
2018-04-30T12:11:50.445Z,59.6
2018-04-30T12:12:39.890Z,59.5
2018-04-30T12:13:31.507Z,59.5
2018-04-30T12:14:20.012Z,59.5
2018-04-30T12:15:10.694Z,59.6
2018-04-30T12:16:00.387Z,59.5
2018-04-30T12:16:53.145Z,59.5
2018-04-30T12:17:40.132Z,59.4
2018-04-30T12:18:30.696Z,59.4
2018-04-30T12:19:20.246Z,59.4
2018-04-30T12:20:11.894Z,59.4
2018-04-30T12:21:00.387Z,59.4
2018-04-30T12:21:50.869Z,59.4
2018-04-30T12:22:41.331Z,59.3
2018-04-30T12:23:32.107Z,59.3
2018-04-30T12:24:20.806Z,59.3
2018-04-30T12:25:11.470Z,59.2
2018-04-30T12:26:01.253Z,59.2
2018-04-30T12:26:50.737Z,59.3
2018-04-30T12:27:41.454Z,59.2
2018-04-30T12:28:31.462Z,59.2
2018-04-30T12:29:21.784Z,59.2
2018-04-30T12:30:11.563Z,59.1
2018-04-30T12:31:01.638Z,59.1
2018-04-30T12:31:51.694Z,59.1
2018-04-30T12:32:41.879Z,59.1
2018-04-30T12:33:33.162Z,59.1
2018-04-30T12:34:22.183Z,59.1
2018-04-30T12:35:12.275Z,59
2018-04-30T12:36:02.366Z,58.9
2018-04-30T12:36:52.109Z,58.9
2018-04-30T12:37:42.227Z,58.9
2018-04-30T12:38:32.051Z,58.8
2018-04-30T12:39:23.549Z,58.8
2018-04-30T12:40:12.413Z,58.8
2018-04-30T12:41:02.631Z,58.7
2018-04-30T12:41:52.208Z,58.7
2018-04-30T12:42:45.118Z,58.6
2018-04-30T12:43:32.937Z,58.6
2018-04-30T12:45:12.782Z,58.5
2018-04-30T12:46:05.229Z,58.4
2018-04-30T12:46:53.187Z,58.4
2018-04-30T12:47:43.055Z,58.4
2018-04-30T12:48:33.025Z,58.3
2018-04-30T12:49:24.906Z,58.3
2018-04-30T12:50:13.446Z,58.3
2018-04-30T12:51:03.241Z,58.2
2018-04-30T12:51:53.292Z,58.1
2018-04-30T12:52:43.100Z,58.1
2018-04-30T12:53:33.709Z,58.1
2018-04-30T12:54:23.794Z,58.1
2018-04-30T12:55:13.565Z,58
2018-04-30T12:56:04.985Z,58
2018-04-30T12:56:53.981Z,58
2018-04-30T12:57:43.469Z,58
2018-04-30T12:58:34.466Z,57.9
2018-04-30T12:59:23.632Z,58
2018-04-30T13:00:13.675Z,57.9
2018-04-30T13:01:04.325Z,57.9
2018-04-30T13:01:57.898Z,57.9
2018-04-30T13:02:44.479Z,57.9
2018-04-30T13:03:33.933Z,57.9
2018-04-30T13:04:23.441Z,57.9
2018-04-30T13:05:14.362Z,57.9
2018-04-30T13:06:04.797Z,57.9
2018-04-30T13:06:54.876Z,57.9
2018-04-30T13:07:43.988Z,57.9
2018-04-30T13:08:34.918Z,57.9
2018-04-30T13:09:24.717Z,57.9
2018-04-30T13:10:15.032Z,57.9
2018-04-30T13:11:06.120Z,57.9
2018-04-30T13:11:54.876Z,57.9
2018-04-30T13:12:44.359Z,57.8
2018-04-30T13:13:35.388Z,57.8
2018-04-30T13:14:28.722Z,57.8
2018-04-30T13:15:14.854Z,57.8
2018-04-30T13:16:05.509Z,57.8
2018-04-30T13:16:55.552Z,57.8
2018-04-30T13:17:45.310Z,57.8
2018-04-30T13:23:36.031Z,57.7
2018-04-30T13:24:26.087Z,57.7
2018-04-30T13:25:16.159Z,57.7
2018-04-30T13:26:05.720Z,57.7
2018-04-30T13:26:55.474Z,57.7
2018-04-30T13:27:46.080Z,57.7
2018-04-30T13:28:36.838Z,57.7
2018-04-30T13:29:25.956Z,57.6
2018-04-30T13:30:16.567Z,57.6
2018-04-30T13:31:06.072Z,57.6
2018-04-30T13:31:56.410Z,57.6
2018-04-30T13:32:46.789Z,57.6
2018-04-30T13:33:36.812Z,57.6
2018-04-30T13:34:26.618Z,57.6
2018-04-30T13:35:16.980Z,57.6
2018-04-30T13:36:06.456Z,57.6
2018-04-30T13:36:56.806Z,57.6
2018-04-30T13:37:47.141Z,57.6
2018-04-30T13:38:36.965Z,57.5
2018-04-30T13:39:27.266Z,57.5
2018-04-30T13:40:17.336Z,57.5
2018-04-30T13:41:07.421Z,57.5
2018-04-30T13:41:57.475Z,57.5
2018-04-30T13:42:47.550Z,57.5
2018-04-30T13:43:38.106Z,57.5
2018-04-30T13:44:27.401Z,57.4
2018-04-30T13:45:17.750Z,57.4
2018-04-30T13:46:07.811Z,57.4
2018-04-30T13:46:57.880Z,57.4
2018-04-30T13:47:47.624Z,57.4
2018-04-30T13:48:38.038Z,57.4
2018-04-30T13:49:27.779Z,57.4
2018-04-30T13:50:18.107Z,57.4
2018-04-30T13:51:07.645Z,57.4
2018-04-30T13:51:58.268Z,57.4
2018-04-30T13:52:48.061Z,57.4
2018-04-30T13:53:38.413Z,57.3
2018-04-30T13:54:27.984Z,57.3
2018-04-30T13:55:18.221Z,57.3
2018-04-30T13:56:07.756Z,57.3
2018-04-30T13:56:58.682Z,57.3
2018-04-30T13:57:48.776Z,57.3
2018-04-30T13:58:38.813Z,57.3
2018-04-30T13:59:28.054Z,57.3
2018-04-30T14:00:18.906Z,57.3
2018-04-30T14:01:08.135Z,57.3
2018-04-30T14:01:59.482Z,57.3
2018-04-30T14:02:48.847Z,57.3
2018-04-30T14:03:39.188Z,57.2
2018-04-30T14:04:28.980Z,57.2
2018-04-30T14:05:19.037Z,57.2
2018-04-30T14:06:09.387Z,57.2
2018-04-30T14:06:59.452Z,57.2
2018-04-30T14:07:48.650Z,57.2
2018-04-30T14:08:39.289Z,57.1
2018-04-30T14:09:29.707Z,57.1
2018-04-30T14:10:18.880Z,57.1
2018-04-30T14:11:09.492Z,57.1
2018-04-30T14:11:59.830Z,57.1
2018-04-30T14:12:49.626Z,57.1
2018-04-30T14:13:40.049Z,57.1
2018-04-30T14:14:30.036Z,57.1
2018-04-30T14:15:19.550Z,57.1
2018-04-30T14:16:10.584Z,57.1
2018-04-30T14:16:59.971Z,57
2018-04-30T14:17:50.285Z,57
2018-04-30T14:18:40.356Z,57
2018-04-30T14:19:30.471Z,57
2018-04-30T14:20:19.951Z,57
2018-04-30T14:21:10.293Z,57
2018-04-30T14:22:00.352Z,57
2018-04-30T14:22:50.699Z,56.9
2018-04-30T14:23:40.479Z,56.9
2018-04-30T14:24:30.267Z,56.9
2018-04-30T14:25:20.350Z,56.9
2018-04-30T14:26:10.393Z,56.9
2018-04-30T14:26:59.907Z,56.9
2018-04-30T14:27:51.104Z,56.9
2018-04-30T14:28:40.874Z,56.9
2018-04-30T14:29:30.662Z,56.9
2018-04-30T14:30:20.710Z,56.9
2018-04-30T14:31:09.964Z,56.8
2018-04-30T14:32:01.425Z,56.8
2018-04-30T14:32:50.654Z,56.8
2018-04-30T14:33:41.289Z,56.8
2018-04-30T14:34:31.034Z,56.8
2018-04-30T14:35:21.414Z,56.8
2018-04-30T14:36:11.757Z,56.8
2018-04-30T14:37:01.502Z,56.8
2018-04-30T14:37:51.644Z,56.8
2018-04-30T14:38:41.683Z,56.8
2018-04-30T14:39:31.816Z,56.8
2018-04-30T14:40:21.809Z,56.7
2018-04-30T14:41:11.573Z,56.7
2018-04-30T14:42:02.241Z,56.7
2018-04-30T14:42:52.308Z,56.7
2018-04-30T14:43:42.066Z,56.7
2018-04-30T14:44:33.011Z,56.7
2018-04-30T14:45:21.913Z,56.7
2018-04-30T14:46:12.242Z,56.7
2018-04-30T14:47:02.577Z,56.6
2018-04-30T14:47:52.622Z,56.6
2018-04-30T14:48:42.464Z,56.6
2018-04-30T14:49:32.516Z,56.6
2018-04-30T14:50:22.302Z,56.6
2018-04-30T14:51:12.914Z,56.6
2018-04-30T14:52:02.146Z,56.6
2018-04-30T14:52:52.479Z,56.6
2018-04-30T14:53:43.107Z,56.6
2018-04-30T14:54:32.908Z,56.6
2018-04-30T14:55:22.694Z,56.5
2018-04-30T14:56:13.052Z,56.5
2018-04-30T14:57:03.119Z,56.5
2018-04-30T14:57:52.874Z,56.5
2018-04-30T14:58:43.196Z,56.5
2018-04-30T14:59:33.581Z,56.5
2018-04-30T15:00:23.663Z,56.5
2018-04-30T15:01:13.434Z,56.4
2018-04-30T15:02:03.787Z,56.4
2018-04-30T15:02:53.549Z,56.4
2018-04-30T15:03:43.898Z,56.4
2018-04-30T15:04:33.692Z,56.4
2018-04-30T15:05:23.469Z,56.4
2018-04-30T15:06:13.927Z,56.4
2018-04-30T15:07:03.337Z,56.4
2018-04-30T15:07:53.945Z,56.4
2018-04-30T15:08:44.291Z,56.4
2018-04-30T15:09:33.799Z,56.3
2018-04-30T15:10:24.147Z,56.3
2018-04-30T15:11:14.215Z,56.3
2018-04-30T15:12:04.271Z,56.3
2018-04-30T15:12:54.076Z,56.3
2018-04-30T15:13:44.130Z,56.3
2018-04-30T15:14:34.557Z,56.3
2018-04-30T15:15:24.349Z,56.3
2018-04-30T15:16:14.596Z,56.3
2018-04-30T15:17:04.134Z,56.3
2018-04-30T15:17:55.045Z,56.3
2018-04-30T15:18:44.781Z,56.3
2018-04-30T15:19:35.180Z,56.3
2018-04-30T15:20:23.879Z,56.2
2018-04-30T15:21:14.720Z,56.2
2018-04-30T15:22:04.477Z,56.2
2018-04-30T15:22:55.109Z,56.2
2018-04-30T15:23:45.483Z,56.2
2018-04-30T15:24:35.273Z,56.1
2018-04-30T15:25:25.057Z,56.2
2018-04-30T15:26:15.685Z,56.1
2018-04-30T15:27:05.812Z,56.1
2018-04-30T15:27:55.249Z,56.1
2018-04-30T15:28:45.291Z,56.1
2018-04-30T15:29:35.072Z,56.1
2018-04-30T15:30:25.692Z,56.1
2018-04-30T15:31:16.090Z,56.1
2018-04-30T15:32:05.835Z,56.1
2018-04-30T15:32:56.192Z,56.1
2018-04-30T15:33:45.738Z,56.1
2018-04-30T15:34:36.316Z,56
2018-04-30T15:35:26.396Z,56
2018-04-30T15:36:16.556Z,56
2018-04-30T15:37:06.492Z,56
2018-04-30T15:37:56.304Z,56
2018-04-30T15:38:46.381Z,56
2018-04-30T15:39:36.719Z,55.9
2018-04-30T15:40:26.198Z,55.9
2018-04-30T15:41:16.862Z,55.9
2018-04-30T15:42:07.190Z,55.9
2018-04-30T15:42:56.975Z,55.9
2018-04-30T15:43:46.195Z,55.9
2018-04-30T15:44:37.108Z,55.9
2018-04-30T15:45:26.589Z,55.9
2018-04-30T15:46:16.933Z,55.9
2018-04-30T15:47:07.291Z,55.9
2018-04-30T15:47:57.378Z,55.9
2018-04-30T15:48:47.255Z,55.9
2018-04-30T15:49:36.940Z,55.8
2018-04-30T15:50:26.991Z,55.8
2018-04-30T15:51:17.643Z,55.8
2018-04-30T15:52:07.429Z,55.8
2018-04-30T15:52:57.498Z,55.8
2018-04-30T15:53:47.530Z,55.8
2018-04-30T15:54:37.595Z,55.8
2018-04-30T15:55:27.673Z,55.8
2018-04-30T15:56:18.027Z,55.8
2018-04-30T15:57:07.540Z,55.8
2018-04-30T15:57:58.321Z,55.8
2018-04-30T15:58:47.954Z,55.8
2018-04-30T15:59:37.988Z,55.8
2018-04-30T16:00:27.766Z,55.8
2018-04-30T16:01:18.037Z,55.7
2018-04-30T16:02:07.937Z,55.7
2018-04-30T16:02:58.523Z,55.7
2018-04-30T16:03:48.336Z,55.7
2018-04-30T16:04:38.405Z,55.6
2018-04-30T16:05:27.874Z,55.7
2018-04-30T16:06:18.898Z,55.6
2018-04-30T16:07:08.629Z,55.6
2018-04-30T16:07:58.674Z,55.6
2018-04-30T16:08:48.709Z,55.6
2018-04-30T16:09:38.765Z,55.6
2018-04-30T16:10:28.869Z,55.6
2018-04-30T16:11:18.349Z,55.6
2018-04-30T16:12:08.969Z,55.6
2018-04-30T16:12:59.136Z,55.6
2018-04-30T16:13:49.417Z,55.6
2018-04-30T16:14:39.449Z,55.6
2018-04-30T16:15:28.956Z,55.6
2018-04-30T16:16:19.678Z,55.5
2018-04-30T16:17:09.413Z,55.5
2018-04-30T16:17:59.443Z,55.5
2018-04-30T16:18:49.497Z,55.5
2018-04-30T16:19:39.629Z,55.5
2018-04-30T16:20:29.231Z,55.5
2018-04-30T16:21:19.772Z,55.4
2018-04-30T16:22:09.751Z,55.4
2018-04-30T16:22:59.831Z,55.4
2018-04-30T16:23:50.191Z,55.4
2018-04-30T16:24:39.658Z,55.4
2018-04-30T16:25:29.746Z,55.4
2018-04-30T16:26:20.103Z,55.4
2018-04-30T16:27:10.183Z,55.4
2018-04-30T16:27:59.939Z,55.4
2018-04-30T16:28:50.570Z,55.4
2018-04-30T16:29:40.063Z,55.4
2018-04-30T16:30:29.859Z,55.4
2018-04-30T16:31:20.168Z,55.4
2018-04-30T16:32:10.535Z,55.3
2018-04-30T16:32:59.468Z,55.3
2018-04-30T16:33:50.683Z,55.3
2018-04-30T16:34:40.177Z,55.3
2018-04-30T16:35:30.809Z,55.3
2018-04-30T16:36:20.302Z,55.3
2018-04-30T16:37:11.200Z,55.3
2018-04-30T16:38:01.270Z,55.3